Latest Weather Observations for Minnipa RS

IDS60801

Issued at 11:01 am CDT Tuesday 28 February 2017 (issued every 30 minutes, with the page automatically refreshed every 10 minutes)

About weather observations | Map of weather stations | Latest weather observations for SA | Other Formats
Station Details ID: 018195 Name: MINNIPA PIRSA Lat: -32.84 Lon: 135.15 Height: 165.0 m
Data from the previous 72 hours. | See also: Recent months at Minnipa RS
Date/Time
CDT
Temp
°C
App
Temp
°C
Dew
Point
°C
Rel
Hum
%
Delta-T
°C
Wind Press
QNH
hPa
Press
MSL
hPa
Rain since
9am
mm
Dir  Spd
km/h
Gust
km/h
Spd
kts
Gust
kts
28/11:00am 31.7 29.1 9.3 25 12.7 NNE 13 22 7 12 1016.7 1016.0 0.0
28/10:30am 29.3 27.6 9.9 30 11.0 E 9 13 5 7 1017.0 1016.3 0.0
28/10:00am 27.8 26.4 10.9 35 9.7 ESE 9 13 5 7 1017.0 1016.3 0.0
28/09:30am 26.0 24.4 11.4 40 8.3 ESE 11 17 6 9 1017.0 1016.3 0.0
28/09:00am 23.4 21.4 11.5 47 6.7 E 13 17 7 9 1017.0 1016.3 0.0
28/08:30am 20.4 18.3 11.1 55 5.1 ESE 13 17 7 9 1016.8 1016.1 0.0
28/08:00am 17.7 15.0 8.8 56 4.6 SE 13 17 7 9 1016.7 1016.0 0.0
28/07:30am 16.9 13.6 8.1 56 4.5 SE 15 19 8 10 1016.4 1015.6 0.0
28/07:00am 16.5 12.7 7.4 55 4.6 SE 17 19 9 10 1016.3 1015.5 0.0
28/06:30am 16.7 14.1 7.6 55 4.6 ESE 11 13 6 7 1016.2 1015.4 0.0
28/06:00am 17.1 14.0 7.2 52 5.0 SE 13 17 7 9 1015.8 1015.0 0.0
28/05:30am 17.1 14.7 7.2 52 5.0 SE 9 11 5 6 1016.0 1015.2 0.0
28/05:00am 17.2 15.0 6.4 49 5.4 SE 7 11 4 6 1016.0 1015.2 0.0
28/04:30am 17.9 15.8 6.7 48 5.6 SSE 7 9 4 5 1015.9 1015.1 0.0
28/04:00am 18.6 16.3 7.4 48 5.7 ESE 9 11 5 6 1016.0 1015.2 0.0
28/03:30am 18.7 14.6 6.2 44 6.2 SE 17 20 9 11 1016.2 1015.4 0.0
28/03:00am 19.6 15.3 7.0 44 6.4 SE 19 22 10 12 1016.5 1015.7 0.0
28/02:30am 19.9 15.4 7.0 43 6.6 ESE 20 24 11 13 1016.6 1015.9 0.0
28/02:00am 20.0 14.8 5.6 39 7.2 SE 22 26 12 14 1016.8 1016.1 0.0
28/01:30am 20.4 15.6 4.4 35 7.8 SE 19 24 10 13 1017.2 1016.4 0.0
28/01:00am 20.3 15.3 3.5 33 8.0 SE 19 22 10 12 1017.5 1016.7 0.0
28/12:30am 20.6 15.9 3.3 32 8.2 SE 17 20 9 11 1017.6 1016.8 0.0
28/12:00am 19.9 15.3 3.6 34 7.8 SE 17 20 9 11 1017.6 1016.8 0.0
 
Date/Time
CDT
Temp
°C
App
Temp
°C
Dew
Point
°C
Rel
Hum
%
Delta-T
°C
Wind Press
QNH
hPa
Press
MSL
hPa
Rain since
9am
mm
Dir  Spd
km/h
Gust
km/h
Spd
kts
Gust
kts
27/11:30pm 20.5 16.0 4.1 34 7.9 SSE 17 20 9 11 1017.6 1016.8 0.0
27/11:00pm 21.0 15.9 3.2 31 8.5 SSE 19 22 10 12 1017.7 1016.9 0.0
27/10:30pm 22.0 16.8 2.7 28 9.2 SSE 19 22 10 12 1017.5 1016.7 0.0
27/10:00pm 23.1 17.8 2.0 25 10.0 SSE 19 24 10 13 1017.2 1016.4 0.0
27/09:30pm 23.8 18.4 1.4 23 10.6 S 19 22 10 12 1016.9 1016.2 0.0
27/09:00pm 24.9 19.7 2.4 23 10.9 S 19 26 10 14 1016.6 1015.9 0.0
27/08:30pm 26.3 20.5 2.3 21 11.7 S 22 28 12 15 1016.2 1015.4 0.0
27/08:00pm 28.3 22.2 2.5 19 12.8 S 24 35 13 19 1015.8 1015.0 0.0
27/07:30pm 29.9 22.8 1.4 16 14.0 SSW 28 33 15 18 1015.5 1014.7 0.0
27/07:00pm 31.3 24.2 1.6 15 14.8 SSW 28 35 15 19 1015.2 1014.4 0.0
27/06:30pm 32.4 25.3 1.5 14 15.5 SSW 28 37 15 20 1015.0 1014.2 0.0
27/06:00pm 33.7 27.0 1.5 13 16.3 SSW 26 33 14 18 1014.9 1014.1 0.0
27/05:30pm 34.0 28.9 0.6 12 16.7 S 17 37 9 20 1014.7 1013.9 0.0
27/05:00pm 35.3 29.8 -2.3 9 18.1 S 17 24 9 13 1014.9 1014.1 0.0
27/04:30pm 35.5 30.7 -2.2 9 18.1 S 13 22 7 12 1015.0 1014.2 0.0
27/04:00pm 34.8 30.0 -2.7 9 17.8 SSW 13 24 7 13 1015.4 1014.6 0.0
27/03:30pm 34.9 31.4 -1.2 10 17.6 WNW 7 15 4 8 1015.6 1014.8 0.0
27/03:00pm 33.8 30.0 -3.5 9 17.4 W 7 13 4 7 1016.0 1015.2 0.0
27/02:30pm 33.7 29.2 -3.5 9 17.3 E 11 19 6 10 1016.3 1015.5 0.0
27/02:00pm 33.1 29.4 -2.6 10 16.8 SSW 7 13 4 7 1016.6 1015.9 0.0
27/01:30pm 33.0 29.1 -1.4 11 16.5 S 9 15 5 8 1016.9 1016.2 0.0
27/01:00pm 32.2 27.6 -0.8 12 15.9 WSW 13 17 7 9 1017.3 1016.5 0.0
27/12:30pm 31.9 28.6 0.1 13 15.5 S 7 15 4 8 1017.7 1016.9 0.0
27/12:00pm 30.7 27.4 0.2 14 14.8 WNW 7 13 4 7 1017.8 1017.0 0.0
27/11:30am 30.4 26.8 0.9 15 14.4 N 9 17 5 9 1018.0 1017.2 0.0
27/11:00am 29.2 25.2 0.8 16 13.8 NNE 11 15 6 8 1018.2 1017.4 0.0
27/10:30am 28.3 24.6 2.5 19 12.8 NNE 11 15 6 8 1018.4 1017.6 0.0
27/10:00am 25.8 23.2 4.3 25 10.8 ENE 7 13 4 7 1018.5 1017.7 0.0
27/09:30am 23.9 20.6 4.3 28 9.7 ENE 11 15 6 8 1018.4 1017.6 0.0
27/09:00am 21.5 18.8 5.8 36 7.9 ESE 9 13 5 7 1018.3 1017.5 0.0
27/08:30am 19.9 17.1 5.2 38 7.2 ESE 9 13 5 7 1018.1 1017.3 0.0
27/08:00am 16.5 13.6 6.3 51 5.0 ESE 11 13 6 7 1017.9 1017.1 0.0
27/07:30am 14.4 11.2 7.0 61 3.6 SE 13 15 7 8 1017.7 1016.9 0.0
27/07:00am 13.7 11.3 7.0 64 3.3 SSE 9 11 5 6 1017.6 1016.8 0.0
27/06:30am 16.7 13.0 4.4 44 5.8 E 13 15 7 8 1017.5 1016.7 0.0
27/06:00am 16.2 12.8 6.1 51 4.9 E 13 17 7 9 1017.5 1016.7 0.0
27/05:30am 16.0 12.5 7.0 55 4.5 ENE 15 17 8 9 1017.6 1016.8 0.0
27/05:00am 16.5 12.6 6.9 53 4.8 E 17 20 9 11 1017.6 1016.8 0.0
27/04:30am 17.4 12.5 6.9 50 5.3 ENE 22 28 12 15 1017.6 1016.8 0.0
27/04:00am 17.6 12.1 7.6 52 5.1 E 26 33 14 18 1017.4 1016.6 0.0
27/03:30am 17.1 12.5 9.5 61 4.0 E 24 33 13 18 1017.5 1016.7 0.0
27/03:00am 17.1 12.2 10.0 63 3.8 E 26 30 14 16 1017.5 1016.7 0.0
27/02:30am 17.3 13.7 10.4 64 3.7 E 20 30 11 16 1017.8 1017.0 0.0
27/02:00am 17.3 14.0 10.9 66 3.5 ESE 19 24 10 13 1018.0 1017.2 0.0
27/01:30am 17.1 14.1 10.5 65 3.5 ESE 17 20 9 11 1018.3 1017.5 0.0
27/01:00am 17.3 13.6 9.5 60 4.1 ESE 19 24 10 13 1018.4 1017.6 0.0
27/12:30am 17.9 13.8 8.5 54 4.9 SE 20 26 11 14 1018.3 1017.5 0.0
27/12:00am 18.8 14.4 7.3 47 5.9 SE 20 26 11 14 1018.2 1017.4 0.0
 
Date/Time
CDT
Temp
°C
App
Temp
°C
Dew
Point
°C
Rel
Hum
%
Delta-T
°C
Wind Press
QNH
hPa
Press
MSL
hPa
Rain since
9am
mm
Dir  Spd
km/h
Gust
km/h
Spd
kts
Gust
kts
26/11:30pm 19.9 15.3 6.6 42 6.7 SE 20 24 11 13 1018.4 1017.6 0.0
26/11:00pm 20.2 16.4 7.6 44 6.5 SE 17 22 9 12 1018.3 1017.5 0.0
26/10:30pm 21.2 17.3 9.4 47 6.3 SSE 20 24 11 13 1018.4 1017.6 0.0
26/10:00pm 21.7 18.2 10.2 48 6.3 S 19 26 10 14 1018.2 1017.4 0.0
26/09:30pm 22.8 19.4 9.2 42 7.3 S 17 24 9 13 1017.9 1017.1 0.0
26/09:00pm 24.0 20.4 8.4 37 8.4 SSW 17 20 9 11 1017.3 1016.5 0.0
26/08:30pm 25.2 22.2 7.8 33 9.3 SSW 13 17 7 9 1016.8 1016.1 0.0
26/08:00pm 26.9 22.6 7.9 30 10.3 SSW 20 28 11 15 1016.4 1015.6 0.0
26/07:30pm 28.2 24.4 9.0 30 10.6 SSW 19 26 10 14 1016.3 1015.5 0.0
26/07:00pm 29.4 24.0 7.9 26 11.8 SSW 26 32 14 17 1016.1 1015.3 0.0
26/06:30pm 31.3 26.0 -0.4 13 15.3 SSE 17 26 9 14 1016.1 1015.3 0.0
26/06:00pm 32.0 27.4 -0.9 12 15.8 S 13 20 7 11 1016.0 1015.2 0.0
26/05:30pm 32.4 28.4 0.5 13 15.7 ESE 11 26 6 14 1016.0 1015.2 0.0
26/05:00pm 32.2 27.8 0.3 13 15.7 ESE 13 22 7 12 1016.0 1015.2 0.0
26/04:30pm 31.7 27.2 -0.1 13 15.4 S 13 22 7 12 1016.1 1015.3 0.0
26/04:00pm 31.8 28.3 1.0 14 15.3 E 9 15 5 8 1016.4 1015.6 0.0
26/03:30pm 31.2 28.3 1.5 15 14.8 ESE 6 13 3 7 1016.7 1016.0 0.0
26/03:00pm 30.7 26.9 -0.8 13 15.0 SSW 9 17 5 9 1017.3 1016.5 0.0
26/02:30pm 29.9 25.9 0.5 15 14.2 E 11 24 6 13 1017.7 1016.9 0.0
26/02:00pm 29.4 25.7 0.1 15 14.1 SE 9 13 5 7 1018.1 1017.3 0.0
26/01:30pm 28.4 24.4 2.6 19 12.8 SE 13 19 7 10 1018.4 1017.6 0.0
26/01:00pm 28.3 25.8 4.6 22 12.2 NNE 7 15 4 8 1018.7 1017.9 0.0
26/12:30pm 26.8 23.7 5.7 26 11.0 E 11 17 6 9 1019.0 1018.2 0.0
26/12:00pm 26.1 23.0 7.2 30 10.0 NE 13 20 7 11 1019.3 1018.5 0.0
26/11:30am 24.2 21.5 9.0 38 8.2 ENE 13 17 7 9 1019.6 1018.8 0.0
26/11:00am 22.7 20.0 10.5 46 6.8 E 15 19 8 10 1019.7 1018.9 0.0
26/10:30am 20.8 18.3 10.9 53 5.5 E 15 20 8 11 1020.0 1019.2 0.0
26/10:00am 18.7 15.4 11.5 63 4.0 ESE 20 28 11 15 1020.1 1019.3 0.0
26/09:30am 17.0 13.0 11.7 71 2.9 ESE 24 30 13 16 1020.0 1019.2 0.0
26/09:00am 15.6 12.0 11.8 78 2.1 ESE 22 30 12 16 1020.0 1019.2 0.0
26/08:30am 14.0 11.2 11.3 84 1.4 ESE 17 22 9 12 1019.9 1019.1 0.0
26/08:00am 12.0 8.6 10.4 90 0.8 ESE 19 22 10 12 1020.0 1019.2 0.0
26/07:30am 11.2 7.4 9.8 91 0.7 ESE 20 24 11 13 1019.9 1019.1 0.0
26/07:00am 11.4 8.5 9.8 90 0.8 ESE 15 19 8 10 1019.9 1019.1 0.0
26/06:30am 11.4 9.3 9.7 89 0.9 ESE 11 13 6 7 1019.7 1018.9 0.0
26/06:00am 11.6 9.0 9.5 87 1.1 SE 13 17 7 9 1019.4 1018.6 0.0
26/05:30am 11.8 8.9 9.5 86 1.2 ESE 15 19 8 10 1019.2 1018.4 0.0
26/05:00am 12.0 9.1 9.6 85 1.2 SE 15 19 8 10 1019.3 1018.5 0.0
26/04:30am 12.4 9.9 9.8 84 1.3 SE 13 17 7 9 1019.5 1018.7 0.0
26/04:00am 12.4 9.1 9.6 83 1.4 ESE 17 20 9 11 1019.7 1018.9 0.0
26/03:30am 13.0 10.1 9.6 80 1.7 SE 15 19 8 10 1019.9 1019.1 0.0
26/03:00am 13.5 11.1 9.9 79 1.9 SE 13 17 7 9 1020.3 1019.5 0.0
26/02:30am 13.6 10.3 9.6 77 2.1 SE 17 19 9 10 1020.6 1019.8 0.0
26/02:00am 13.9 10.6 9.7 76 2.2 ESE 17 19 9 10 1020.7 1019.9 0.0
26/01:30am 14.3 11.4 9.7 74 2.4 SE 15 19 8 10 1021.1 1020.3 0.0
26/01:00am 14.8 11.9 9.6 71 2.7 SE 15 19 8 10 1021.3 1020.5 0.0
26/12:30am 15.4 12.5 9.7 69 3.0 ESE 15 19 8 10 1021.6 1020.8 0.0
26/12:00am 16.4 12.7 10.0 66 3.4 SE 20 30 11 16 1021.6 1020.8 0.0
 
Date/Time
CDT
Temp
°C
App
Temp
°C
Dew
Point
°C
Rel
Hum
%
Delta-T
°C
Wind Press
QNH
hPa
Press
MSL
hPa
Rain since
9am
mm
Dir  Spd
km/h
Gust
km/h
Spd
kts
Gust
kts
25/11:30pm 16.8 12.6 9.7 63 3.7 SE 22 30 12 16 1021.8 1021.0 0.0
25/11:00pm 17.4 12.8 9.6 60 4.1 SE 24 35 13 19 1021.8 1021.0 0.0
25/10:30pm 17.9 13.6 9.3 57 4.5 SE 22 30 12 16 1021.9 1021.1 0.0
25/10:00pm 18.7 13.6 9.2 54 5.0 SE 26 33 14 18 1021.7 1020.9 0.0
25/09:30pm 19.5 14.4 9.1 51 5.5 SE 26 32 14 17 1021.5 1020.7 0.0
25/09:00pm 20.5 15.2 8.5 46 6.3 SE 26 33 14 18 1021.2 1020.4 0.0
25/08:30pm 21.5 16.0 7.7 41 7.2 SE 26 35 14 19 1020.8 1020.0 0.0
25/08:00pm 23.1 17.2 7.6 37 8.2 SE 28 35 15 19 1020.6 1019.8 0.0
25/07:30pm 24.5 18.4 6.7 32 9.3 SE 28 35 15 19 1020.5 1019.7 0.0
25/07:00pm 25.6 19.2 6.8 30 9.9 SE 30 41 16 22 1020.4 1019.6 0.0
25/06:30pm 26.6 20.2 7.1 29 10.4 SE 30 41 16 22 1020.1 1019.3 0.0
25/06:00pm 26.9 20.7 6.3 27 10.8 SE 28 37 15 20 1020.2 1019.4 0.0
25/05:30pm 27.9 21.9 7.2 27 11.1 SE 28 37 15 20 1020.4 1019.6 0.0
25/05:00pm 28.1 22.0 6.8 26 11.4 SE 28 37 15 20 1020.4 1019.6 0.0
25/04:30pm 27.9 21.8 6.6 26 11.3 SSE 28 43 15 23 1020.7 1019.9 0.0
25/04:00pm 28.3 22.4 7.5 27 11.3 SSE 28 37 15 20 1020.9 1020.1 0.0
25/03:30pm 27.5 21.3 6.3 26 11.2 SE 28 41 15 22 1021.3 1020.5 0.0
25/03:00pm 27.9 22.4 7.7 28 10.9 SE 26 39 14 21 1021.8 1021.0 0.0
25/02:30pm 27.1 21.2 7.5 29 10.5 SSE 28 41 15 22 1022.2 1021.5 0.0
25/02:00pm 25.3 19.8 7.4 32 9.5 SE 26 39 14 21 1022.8 1022.1 0.0
25/01:30pm 25.4 20.3 7.5 32 9.5 SE 24 37 13 20 1023.2 1022.5 0.0
25/01:00pm 24.8 19.4 7.9 34 9.0 SE 26 39 14 21 1023.7 1022.9 0.0
25/12:30pm 24.3 19.0 8.3 36 8.6 SE 26 37 14 20 1024.1 1023.3 0.0
25/12:00pm 22.7 17.6 9.1 42 7.3 SE 26 39 14 21 1024.5 1023.7 0.0
25/11:30am 22.5 17.5 9.6 44 7.0 SE 26 33 14 18 1024.9 1024.1 0.0

Other Formats:

Comma delimited format used in spreadsheet applications
http://www.bom.gov.au/fwo/IDS60801/IDS60801.95662.axf

JavaScript Object Notation format (JSON) in row-major order
http://www.bom.gov.au/fwo/IDS60801/IDS60801.95662.json